Arlington, Washington
Current Conditions -  °F | °C
As of 1:55 PM on Thursday 27 Nov 2014 (Local Time) from KAWO Reporting Station
Overcast Overcast  
Wind Chill: 57°   Ceiling: 2100
Heat Index: 57°   Visibility: 10mi
Dew Point: 48°   Wind: 24mph
Humidity: 72%   Direction: 170°S
Pressure: 29.75"   Gusts: 32mph
Location:  48.2°N, 122.13°W
Report Text: KAWO 272155Z AUTO 17021G28KT 10SM OVC021 14/09 A2975 RMK AO1
Loading
Personal Weather Stations






























Interactive Weather Map New forecast layout! Learn more

10-Day Weather Forecast

Advertisements
Track Severe Weather on mobile